createdAt,value
2022-11-12T00:01:27.105Z,139.55
2022-11-12T00:04:12.110Z,119.68
2022-11-12T00:06:57.115Z,56.60
2022-11-12T00:09:42.493Z,38.30
2022-11-12T00:12:27.537Z,111.88
2022-11-12T00:15:12.764Z,41.75
2022-11-12T00:17:58.159Z,65.15
2022-11-12T00:20:44.401Z,77.20
2022-11-12T00:23:29.651Z,116.22
2022-11-12T00:26:14.981Z,75.95
2022-11-12T00:29:00.187Z,60.92
2022-11-12T00:31:45.183Z,51.90
2022-11-12T00:34:30.071Z,90.38
2022-11-12T00:37:16.704Z,72.32
2022-11-12T00:40:01.825Z,91.30
2022-11-12T00:42:46.679Z,95.32
2022-11-12T00:45:31.743Z,67.43
2022-11-12T00:48:16.872Z,55.13
2022-11-12T00:51:04.888Z,77.53
2022-11-12T00:53:50.748Z,86.55
2022-11-12T00:56:35.889Z,96.40
2022-11-12T00:59:21.084Z,95.43
2022-11-12T01:02:06.255Z,76.22
2022-11-12T01:04:51.149Z,49.60
2022-11-12T01:07:36.125Z,84.88
2022-11-12T01:10:21.120Z,54.70
2022-11-12T01:13:06.442Z,106.68
2022-11-12T01:15:51.532Z,108.47
2022-11-12T01:18:36.707Z,82.53
2022-11-12T01:21:24.051Z,63.08
2022-11-12T01:24:09.712Z,69.25
2022-11-12T01:26:55.101Z,93.30
2022-11-12T01:29:41.089Z,106.93
2022-11-12T01:32:27.811Z,248.50
2022-11-12T01:35:12.720Z,102.45
2022-11-12T01:37:57.896Z,83.40
2022-11-12T01:40:42.930Z,120.70
2022-11-12T01:43:28.015Z,180.15
2022-11-12T01:46:31.346Z,88.00
2022-11-12T01:49:23.526Z,130.00
2022-11-12T01:52:24.293Z,80.85
2022-11-12T01:55:12.866Z,123.80
2022-11-12T01:58:06.095Z,52.70
2022-11-12T02:00:51.214Z,46.75
2022-11-12T02:03:36.453Z,77.60
2022-11-12T02:06:21.588Z,58.17
2022-11-12T02:09:07.412Z,51.92
2022-11-12T02:11:52.440Z,72.10
2022-11-12T02:14:37.655Z,79.85
2022-11-12T02:17:22.933Z,102.10
2022-11-12T02:20:11.583Z,95.85
2022-11-12T02:22:56.958Z,125.22
2022-11-12T02:25:41.789Z,148.82
2022-11-12T02:28:28.753Z,170.40
2022-11-12T02:31:14.306Z,160.00
2022-11-12T02:33:59.272Z,104.40
2022-11-12T02:36:44.482Z,250.35
2022-11-12T02:39:29.422Z,81.30
2022-11-12T02:42:14.425Z,133.48
2022-11-12T02:44:59.631Z,240.48
2022-11-12T02:47:44.892Z,178.43
2022-11-12T02:50:29.780Z,227.38
2022-11-12T02:53:14.686Z,139.18
2022-11-12T02:56:00.865Z,215.18
2022-11-12T02:58:46.005Z,225.60
2022-11-12T03:01:31.270Z,229.70
2022-11-12T03:04:16.232Z,179.13
2022-11-12T03:07:01.146Z,104.85
2022-11-12T03:09:46.165Z,134.98
2022-11-12T03:12:32.521Z,55.90
2022-11-12T03:15:17.722Z,72.20
2022-11-12T03:18:03.242Z,140.13
2022-11-12T03:20:51.747Z,259.45
2022-11-12T03:23:36.821Z,104.57
2022-11-12T03:26:22.136Z,145.23
2022-11-12T03:29:14.511Z,137.66
2022-11-12T03:31:59.772Z,119.57
2022-11-12T03:34:44.856Z,138.25
2022-11-12T03:37:29.763Z,67.60
2022-11-12T03:40:15.923Z,72.38
2022-11-12T03:43:00.879Z,106.13
2022-11-12T03:45:45.888Z,105.25
2022-11-12T03:48:30.778Z,88.57
2022-11-12T03:51:16.417Z,53.85
2022-11-12T03:54:01.364Z,67.18
2022-11-12T03:56:46.528Z,47.85
2022-11-12T03:59:31.556Z,41.35
2022-11-12T04:02:16.572Z,31.95
2022-11-12T04:05:20.259Z,24.92
2022-11-12T04:08:28.862Z,41.95
2022-11-12T04:11:16.383Z,25.27
2022-11-12T04:14:01.556Z,23.15
2022-11-12T04:17:05.511Z,25.23
2022-11-12T04:20:09.388Z,20.08
2022-11-12T04:22:54.613Z,23.92
2022-11-12T04:25:59.435Z,21.23
2022-11-12T04:29:04.673Z,19.50
2022-11-12T04:31:49.665Z,21.23
2022-11-12T04:34:34.858Z,21.88
2022-11-12T04:37:23.523Z,18.25
2022-11-12T04:40:32.939Z,18.23
2022-11-12T04:43:36.827Z,19.77
2022-11-12T04:46:22.156Z,22.13
2022-11-12T04:49:07.366Z,19.13
2022-11-12T04:52:07.529Z,22.40
2022-11-12T04:54:52.924Z,21.77
2022-11-12T04:57:38.867Z,26.00
2022-11-12T05:00:24.300Z,22.50
2022-11-12T05:03:09.427Z,20.05
2022-11-12T05:06:01.957Z,21.10
2022-11-12T05:08:47.204Z,24.88
2022-11-12T05:11:32.048Z,25.20
2022-11-12T05:14:17.536Z,20.45
2022-11-12T05:17:02.611Z,22.15
2022-11-12T05:19:47.823Z,21.17
2022-11-12T05:22:43.447Z,19.70
2022-11-12T05:25:30.897Z,20.35
2022-11-12T05:28:15.796Z,20.05
2022-11-12T05:31:04.197Z,20.13
2022-11-12T05:33:49.560Z,22.35
2022-11-12T05:36:34.433Z,23.38
2022-11-12T05:39:19.820Z,18.52
2022-11-12T05:42:12.932Z,22.00
2022-11-12T05:44:59.352Z,19.77
2022-11-12T05:47:44.494Z,21.38
2022-11-12T05:50:35.048Z,18.50
2022-11-12T05:53:25.543Z,22.65
2022-11-12T05:56:11.484Z,25.13
2022-11-12T05:58:56.512Z,25.48
2022-11-12T06:01:44.670Z,23.23
2022-11-12T06:04:30.290Z,28.42
2022-11-12T06:07:15.535Z,25.70
2022-11-12T06:10:00.562Z,25.25
2022-11-12T06:12:45.658Z,20.23
2022-11-12T06:15:35.142Z,20.92
2022-11-12T06:18:24.733Z,26.65
2022-11-12T06:21:20.021Z,19.75
2022-11-12T06:24:05.332Z,21.63
2022-11-12T06:26:50.233Z,22.02
2022-11-12T06:29:35.124Z,22.83
2022-11-12T06:32:20.300Z,17.17
2022-11-12T06:35:05.882Z,20.70
2022-11-12T06:37:50.896Z,23.65
2022-11-12T06:40:36.200Z,19.27
2022-11-12T06:43:21.365Z,24.88
2022-11-12T06:46:10.839Z,28.17
2022-11-12T06:51:41.246Z,23.00
2022-11-12T06:54:26.629Z,22.67
2022-11-12T06:57:11.652Z,26.70
2022-11-12T06:59:57.007Z,23.00
2022-11-12T07:02:42.243Z,22.15
2022-11-12T07:05:27.269Z,26.85
2022-11-12T07:08:12.363Z,17.95
2022-11-12T07:10:57.998Z,25.35
2022-11-12T07:13:46.658Z,20.52
2022-11-12T07:16:31.816Z,22.60
2022-11-12T07:19:17.263Z,24.73
2022-11-12T07:22:02.630Z,26.05
2022-11-12T07:24:47.863Z,22.15
2022-11-12T07:27:32.933Z,19.75
2022-11-12T07:30:17.960Z,17.08
2022-11-12T07:33:03.072Z,20.88
2022-11-12T07:35:48.009Z,23.13
2022-11-12T07:38:35.505Z,25.58
2022-11-12T07:41:23.447Z,22.85
2022-11-12T07:44:08.505Z,19.95
2022-11-12T07:46:53.447Z,22.63
2022-11-12T07:49:38.521Z,25.15
2022-11-12T07:52:23.341Z,23.42
2022-11-12T07:55:08.908Z,23.23
2022-11-12T07:57:54.272Z,21.15
2022-11-12T08:00:39.453Z,24.55
2022-11-12T08:03:24.709Z,20.13
2022-11-12T08:06:09.700Z,22.70
2022-11-12T08:08:55.376Z,22.52
2022-11-12T08:11:42.056Z,21.27
2022-11-12T08:14:27.151Z,24.48
2022-11-12T08:17:12.373Z,27.35
2022-11-12T08:19:57.673Z,26.33
2022-11-12T08:22:47.916Z,29.15
2022-11-12T08:25:34.508Z,15.88
2022-11-12T08:28:19.478Z,24.10
2022-11-12T08:31:10.811Z,26.67
2022-11-12T08:33:55.781Z,22.90
2022-11-12T08:36:41.197Z,25.58
2022-11-12T08:39:26.413Z,24.90
2022-11-12T08:42:11.331Z,29.05
2022-11-12T08:44:56.432Z,23.70
2022-11-12T08:47:41.346Z,21.17
2022-11-12T08:50:26.818Z,29.40
2022-11-12T08:53:13.842Z,26.00
2022-11-12T08:55:59.288Z,27.83
2022-11-12T08:58:44.413Z,19.77
2022-11-12T09:01:29.473Z,34.10
2022-11-12T09:04:14.765Z,21.67
2022-11-12T09:07:00.019Z,27.05
2022-11-12T09:09:45.188Z,24.98
2022-11-12T09:12:30.332Z,30.42
2022-11-12T09:18:20.315Z,24.25
2022-11-12T09:21:08.640Z,24.92
2022-11-12T09:23:53.586Z,27.20
2022-11-12T09:26:38.802Z,30.65
2022-11-12T09:29:23.749Z,22.80
2022-11-12T09:32:09.049Z,24.02
2022-11-12T09:34:54.036Z,22.80
2022-11-12T09:37:39.299Z,22.70
2022-11-12T09:40:44.036Z,27.60
2022-11-12T09:43:32.597Z,20.20
2022-11-12T09:46:29.644Z,19.67
2022-11-12T09:49:19.506Z,21.35
2022-11-12T09:52:14.196Z,26.05
2022-11-12T09:55:17.578Z,28.65
2022-11-12T09:58:05.942Z,28.45
2022-11-12T10:01:03.220Z,23.98
2022-11-12T10:04:18.386Z,24.25
2022-11-12T10:07:16.861Z,21.10
2022-11-12T10:10:18.201Z,18.52
2022-11-12T10:13:16.793Z,25.20
2022-11-12T10:16:43.126Z,22.83
2022-11-12T10:19:59.207Z,22.23
2022-11-12T10:22:47.276Z,20.40
2022-11-12T10:25:32.817Z,23.15
2022-11-12T10:28:38.366Z,16.67
2022-11-12T10:31:24.700Z,21.02
2022-11-12T10:34:20.125Z,24.75
2022-11-12T10:37:07.771Z,26.13
2022-11-12T10:39:53.264Z,17.77
2022-11-12T10:42:56.547Z,17.88
2022-11-12T10:45:46.332Z,18.05
2022-11-12T10:48:34.093Z,10.65
2022-11-12T10:51:27.232Z,15.60
2022-11-12T10:54:27.648Z,17.90
2022-11-12T10:57:21.350Z,16.15
2022-11-12T11:00:12.346Z,15.32
2022-11-12T11:02:58.156Z,15.02
2022-11-12T11:06:05.116Z,14.23
2022-11-12T11:08:52.553Z,19.65
2022-11-12T11:11:37.974Z,14.48
2022-11-12T11:14:23.256Z,17.25
2022-11-12T11:17:17.674Z,14.13
2022-11-12T11:20:21.533Z,14.20
2022-11-12T11:23:17.393Z,13.68
2022-11-12T11:26:20.267Z,14.35
2022-11-12T11:29:22.358Z,23.25
2022-11-12T11:32:26.153Z,11.40
2022-11-12T11:35:24.645Z,12.80
2022-11-12T11:38:28.664Z,12.52
2022-11-12T11:41:32.585Z,10.82
2022-11-12T11:44:41.844Z,14.85
2022-11-12T11:48:01.334Z,11.00
2022-11-12T11:51:26.624Z,29.83
2022-11-12T11:54:40.376Z,12.70
2022-11-12T11:57:33.796Z,12.27
2022-11-12T12:00:20.980Z,14.57
2022-11-12T12:03:33.020Z,14.38
2022-11-12T12:06:29.744Z,13.02
2022-11-12T12:09:32.951Z,13.13
2022-11-12T12:12:39.855Z,8.20
2022-11-12T12:15:57.351Z,23.48
2022-11-12T12:18:52.813Z,9.50
2022-11-12T12:21:52.605Z,12.18
2022-11-12T12:24:48.813Z,9.68
2022-11-12T12:27:46.072Z,13.65
2022-11-12T12:30:38.011Z,11.73
2022-11-12T12:33:37.376Z,10.20
2022-11-12T12:36:31.882Z,7.03
2022-11-12T12:39:26.665Z,10.55
2022-11-12T12:42:22.537Z,8.70
2022-11-12T12:45:41.815Z,12.35
2022-11-12T12:48:30.974Z,9.70
2022-11-12T12:51:16.519Z,10.63
2022-11-12T12:54:01.560Z,8.10
2022-11-12T12:56:48.860Z,11.68
2022-11-12T12:59:34.023Z,8.90
2022-11-12T13:02:22.402Z,8.68
2022-11-12T13:05:23.488Z,13.60
2022-11-12T13:08:36.205Z,9.40
2022-11-12T13:12:00.132Z,11.77
2022-11-12T13:14:52.352Z,10.45
2022-11-12T13:17:49.204Z,6.85
2022-11-12T13:20:37.214Z,9.30
2022-11-12T13:24:04.284Z,10.27
2022-11-12T13:26:57.507Z,13.27
2022-11-12T13:29:43.964Z,11.88
2022-11-12T13:32:36.288Z,11.00
2022-11-12T13:35:34.984Z,7.63
2022-11-12T13:38:20.538Z,10.70
2022-11-12T13:41:42.123Z,9.98
2022-11-12T13:44:28.263Z,9.35
2022-11-12T13:47:21.878Z,8.68
2022-11-12T13:50:10.660Z,11.77
2022-11-12T13:52:56.353Z,10.35
2022-11-12T13:55:49.380Z,10.48
2022-11-12T13:58:36.082Z,11.02
2022-11-12T14:01:24.123Z,8.82
2022-11-12T14:04:15.561Z,8.55
2022-11-12T14:07:23.695Z,11.60
2022-11-12T14:10:46.126Z,11.90
2022-11-12T14:13:40.607Z,30.25
2022-11-12T14:16:31.493Z,10.25
2022-11-12T14:19:37.885Z,12.45
2022-11-12T14:22:24.677Z,12.32
2022-11-12T14:25:20.577Z,10.57
2022-11-12T14:28:06.155Z,12.80
2022-11-12T14:30:50.988Z,9.93
2022-11-12T14:33:35.910Z,11.23
2022-11-12T14:36:22.078Z,9.95
2022-11-12T14:39:11.079Z,11.18
2022-11-12T14:41:58.270Z,11.25
2022-11-12T14:44:43.954Z,13.00
2022-11-12T14:47:29.258Z,10.60
2022-11-12T14:50:24.067Z,11.80
2022-11-12T14:53:25.131Z,13.88
2022-11-12T14:56:23.614Z,13.30
2022-11-12T14:59:12.715Z,14.10
2022-11-12T15:02:36.043Z,8.95
2022-11-12T15:05:20.643Z,11.00
2022-11-12T15:08:11.752Z,10.07
2022-11-12T15:11:20.312Z,13.20
2022-11-12T15:14:12.133Z,11.25
2022-11-12T15:16:57.516Z,13.32
2022-11-12T15:19:42.646Z,12.48
2022-11-12T15:22:28.187Z,11.68
2022-11-12T15:25:16.247Z,9.82
2022-11-12T15:28:22.139Z,12.88
2022-11-12T15:31:20.312Z,13.25
2022-11-12T15:34:41.000Z,15.02
2022-11-12T15:37:30.161Z,13.15
2022-11-12T15:40:18.710Z,15.50
2022-11-12T15:43:03.611Z,12.02
2022-11-12T15:45:53.333Z,14.18
2022-11-12T15:48:38.228Z,14.63
2022-11-12T15:51:23.091Z,14.48
2022-11-12T15:54:08.452Z,15.20
2022-11-12T15:56:53.568Z,17.55
2022-11-12T15:59:38.736Z,15.15
2022-11-12T16:02:24.688Z,13.60
2022-11-12T16:05:18.120Z,15.48
2022-11-12T16:08:03.097Z,18.08
2022-11-12T16:10:49.106Z,18.02
2022-11-12T16:13:34.472Z,17.27
2022-11-12T16:16:19.560Z,18.08
2022-11-12T16:19:04.740Z,14.65
2022-11-12T16:21:50.678Z,16.95
2022-11-12T16:24:35.730Z,16.88
2022-11-12T16:27:22.639Z,18.05
2022-11-12T16:30:14.926Z,17.13
2022-11-12T16:33:01.272Z,14.30
2022-11-12T16:35:46.305Z,13.90
2022-11-12T16:38:31.469Z,16.33
2022-11-12T16:41:16.472Z,16.55
2022-11-12T16:44:01.470Z,16.75
2022-11-12T16:46:46.713Z,20.45
2022-11-12T16:49:37.332Z,19.35
2022-11-12T16:52:24.078Z,17.38
2022-11-12T16:55:09.800Z,20.15
2022-11-12T16:57:54.939Z,21.48
2022-11-12T17:00:41.671Z,18.40
2022-11-12T17:03:26.971Z,20.08
2022-11-12T17:06:12.591Z,21.50
2022-11-12T17:08:57.731Z,20.85
2022-11-12T17:11:42.981Z,21.95
2022-11-12T17:14:28.647Z,20.23
2022-11-12T17:17:13.616Z,20.52
2022-11-12T17:19:59.308Z,17.73
2022-11-12T17:22:44.873Z,24.85
2022-11-12T17:25:29.812Z,26.05
2022-11-12T17:28:14.837Z,22.60
2022-11-12T17:31:07.094Z,26.63
2022-11-12T17:33:53.424Z,30.83
2022-11-12T17:36:43.328Z,26.00
2022-11-12T17:39:28.809Z,35.28
2022-11-12T17:42:13.938Z,31.17
2022-11-12T17:44:58.864Z,31.95
2022-11-12T17:47:43.800Z,28.85
2022-11-12T17:50:28.861Z,31.70
2022-11-12T17:53:14.354Z,34.90
2022-11-12T17:55:59.554Z,31.83
2022-11-12T17:58:48.418Z,34.13
2022-11-12T18:01:34.518Z,34.30
2022-11-12T18:04:22.394Z,34.38
2022-11-12T18:07:08.711Z,32.63
2022-11-12T18:09:53.678Z,33.80
2022-11-12T18:12:39.092Z,32.25
2022-11-12T18:15:24.509Z,27.42
2022-11-12T18:18:09.669Z,33.85
2022-11-12T18:20:54.849Z,44.33
2022-11-12T18:23:42.108Z,37.38
2022-11-12T18:26:27.137Z,39.22
2022-11-12T18:29:12.655Z,41.88
2022-11-12T18:31:57.652Z,36.45
2022-11-12T18:34:45.074Z,37.58
2022-11-12T18:37:30.049Z,42.97
2022-11-12T18:40:15.934Z,44.97
2022-11-12T18:43:00.780Z,42.35
2022-11-12T18:45:53.795Z,35.60
2022-11-12T18:48:40.264Z,36.17
2022-11-12T18:51:25.395Z,46.17
2022-11-12T18:54:10.349Z,43.58
2022-11-12T18:56:55.347Z,36.83
2022-11-12T18:59:40.701Z,40.65
2022-11-12T19:02:25.928Z,44.28
2022-11-12T19:05:11.012Z,41.22
2022-11-12T19:07:56.141Z,41.90
2022-11-12T19:10:41.288Z,40.00
2022-11-12T19:13:27.070Z,33.95
2022-11-12T19:16:16.884Z,37.88
2022-11-12T19:19:02.003Z,39.13
2022-11-12T19:21:48.744Z,39.75
2022-11-12T19:24:34.064Z,42.28
2022-11-12T19:27:19.863Z,43.42
2022-11-12T19:30:06.805Z,44.08
2022-11-12T19:32:51.826Z,41.72
2022-11-12T19:35:40.314Z,37.35
2022-11-12T19:38:25.958Z,48.47
2022-11-12T19:41:19.417Z,50.50
2022-11-12T19:44:04.952Z,55.25
2022-11-12T19:46:50.308Z,52.00
2022-11-12T19:49:35.494Z,55.03
2022-11-12T19:52:21.897Z,51.08
2022-11-12T19:55:07.536Z,51.85
2022-11-12T19:57:52.745Z,47.97
2022-11-12T20:00:37.992Z,47.85
2022-11-12T20:03:25.089Z,41.42
2022-11-12T20:06:15.304Z,45.10
2022-11-12T20:09:00.797Z,51.55
2022-11-12T20:11:45.685Z,42.70
2022-11-12T20:14:30.799Z,44.20
2022-11-12T20:17:16.010Z,44.47
2022-11-12T20:20:01.333Z,51.03
2022-11-12T20:22:46.583Z,44.20
2022-11-12T20:25:31.473Z,43.53
2022-11-12T20:28:16.698Z,48.60
2022-11-12T20:31:09.496Z,42.90
2022-11-12T20:33:56.454Z,43.58
2022-11-12T20:36:41.337Z,47.08
2022-11-12T20:39:26.432Z,49.67
2022-11-12T20:42:11.618Z,51.08
2022-11-12T20:44:56.698Z,53.13
2022-11-12T20:47:41.601Z,46.03
2022-11-12T20:50:26.992Z,49.10
2022-11-12T20:53:12.671Z,47.67
2022-11-12T20:56:11.172Z,48.58
2022-11-12T20:58:57.890Z,42.90
2022-11-12T21:01:42.776Z,46.58
2022-11-12T21:04:27.945Z,40.33
2022-11-12T21:07:12.972Z,36.88
2022-11-12T21:09:58.156Z,44.58
2022-11-12T21:12:43.449Z,43.55
2022-11-12T21:15:28.919Z,43.95
2022-11-12T21:18:14.445Z,43.55
2022-11-12T21:21:00.748Z,43.67
2022-11-12T21:23:46.590Z,47.22
2022-11-12T21:26:31.751Z,42.22
2022-11-12T21:29:19.109Z,40.05
2022-11-12T21:32:04.746Z,39.53
2022-11-12T21:34:49.851Z,43.45
2022-11-12T21:37:34.921Z,40.08
2022-11-12T21:40:20.004Z,38.40
2022-11-12T21:43:07.048Z,39.97
2022-11-12T21:45:52.368Z,39.58
2022-11-12T21:48:37.267Z,43.13
2022-11-12T21:51:25.377Z,40.97
2022-11-12T21:54:13.343Z,36.53
2022-11-12T21:56:58.379Z,33.92
2022-11-12T21:59:43.756Z,35.65
2022-11-12T22:02:29.178Z,34.08
2022-11-12T22:05:15.160Z,38.13
2022-11-12T22:08:00.613Z,36.67
2022-11-12T22:10:45.567Z,41.30
2022-11-12T22:13:31.311Z,36.30
2022-11-12T22:16:22.229Z,37.10
2022-11-12T22:19:07.201Z,36.97
2022-11-12T22:21:52.416Z,37.42
2022-11-12T22:24:37.658Z,36.03
2022-11-12T22:27:23.592Z,33.55
2022-11-12T22:30:09.582Z,39.00
2022-11-12T22:32:54.646Z,36.17
2022-11-12T22:35:39.584Z,32.38
2022-11-12T22:38:24.643Z,36.95
2022-11-12T22:41:15.548Z,36.50
2022-11-12T22:44:02.064Z,35.22
2022-11-12T22:46:47.165Z,43.30
2022-11-12T22:49:32.016Z,34.22
2022-11-12T22:52:17.118Z,36.85
2022-11-12T22:55:02.232Z,38.30
2022-11-12T22:57:47.133Z,33.13
2022-11-12T23:00:32.440Z,35.45
2022-11-12T23:03:17.653Z,37.03
2022-11-12T23:06:05.834Z,32.88
2022-11-12T23:08:52.670Z,31.98
2022-11-12T23:11:38.284Z,31.58
2022-11-12T23:14:24.531Z,32.20
2022-11-12T23:17:09.310Z,28.65
2022-11-12T23:19:54.587Z,34.22
2022-11-12T23:22:39.237Z,35.20
2022-11-12T23:25:24.064Z,34.03
2022-11-12T23:28:09.292Z,34.88
2022-11-12T23:30:54.872Z,32.75
2022-11-12T23:33:44.353Z,34.83
2022-11-12T23:36:30.354Z,30.95
2022-11-12T23:39:15.646Z,34.88
2022-11-12T23:42:00.932Z,31.00
2022-11-12T23:44:46.465Z,30.40
2022-11-12T23:47:31.876Z,32.33
2022-11-12T23:50:17.138Z,32.13
2022-11-12T23:53:02.440Z,33.70
2022-11-12T23:55:47.273Z,34.03
2022-11-12T23:58:32.792Z,36.92
